Time;durP1;ratioP1;P1;durP2;ratioP2;P2;SDS_P1;SDS_P2;PMS_P1;PMS_P2;Temp;Humidity;BMP_temperature;BMP_pressure;BME280_temperature;BME280_humidity;BME280_pressure;Samples;Min_cycle;Max_cycle;Signal;HPM_P1;HPM_P2
2023/04/16 00:00:54;;;;;;;1.50;0.90;;;;;;;;;;5044878;28;20039;-61
2023/04/16 00:03:20;;;;;;;2.33;1.10;;;;;;;;;;5045057;28;20079;-59
2023/04/16 00:05:45;;;;;;;1.65;0.90;;;;;;;;;;5044975;28;20036;-59
2023/04/16 00:08:11;;;;;;;1.35;0.75;;;;;;;;;;5044934;28;20037;-59
2023/04/16 00:10:36;;;;;;;1.58;0.80;;;;;;;;;;5045060;28;20037;-58
2023/04/16 00:13:01;;;;;;;1.57;0.87;;;;;;;;;;5045562;28;20033;-60
2023/04/16 00:15:26;;;;;;;1.60;0.80;;;;;;;;;;5042709;28;20029;-61
2023/04/16 00:17:51;;;;;;;2.13;0.93;;;;;;;;;;5045102;28;20127;-60
2023/04/16 00:20:18;;;;;;;1.93;0.90;;;;;;;;;;5044844;28;20061;-60
2023/04/16 00:22:44;;;;;;;2.00;1.00;;;;;;;;;;5037193;28;20393;-59
2023/04/16 00:25:09;;;;;;;1.63;1.00;;;;;;;;;;5036551;28;20537;-60
2023/04/16 00:27:35;;;;;;;2.20;1.00;;;;;;;;;;5044843;28;20279;-59
2023/04/16 00:30:00;;;;;;;1.67;0.80;;;;;;;;;;5043043;28;20041;-59
2023/04/16 00:32:25;;;;;;;1.43;1.00;;;;;;;;;;5043455;28;20511;-59
2023/04/16 00:34:50;;;;;;;1.70;0.80;;;;;;;;;;5044474;28;20283;-59
2023/04/16 00:37:16;;;;;;;1.30;0.90;;;;;;;;;;5025966;28;20344;-60
2023/04/16 00:39:41;;;;;;;1.63;0.90;;;;;;;;;;5043819;28;20260;-59
2023/04/16 00:42:06;;;;;;;2.10;0.93;;;;;;;;;;5042158;28;20033;-61
2023/04/16 00:44:34;;;;;;;1.77;1.00;;;;;;;;;;5042038;28;20290;-59
2023/04/16 00:47:00;;;;;;;1.63;1.00;;;;;;;;;;5041871;28;20409;-59
2023/04/16 00:49:25;;;;;;;1.70;0.98;;;;;;;;;;5042436;28;20040;-59
2023/04/16 00:51:50;;;;;;;1.57;0.97;;;;;;;;;;5043530;28;20037;-60
2023/04/16 00:54:15;;;;;;;1.77;0.90;;;;;;;;;;5041630;28;20287;-60
2023/04/16 00:56:41;;;;;;;2.30;1.10;;;;;;;;;;5042909;28;20275;-59
2023/04/16 00:59:06;;;;;;;1.90;0.70;;;;;;;;;;5043218;28;20303;-60
2023/04/16 01:01:31;;;;;;;1.40;0.70;;;;;;;;;;5041838;28;20306;-59
2023/04/16 01:03:56;;;;;;;1.97;0.90;;;;;;;;;;5044313;28;20718;-59
2023/04/16 01:06:21;;;;;;;2.03;1.00;;;;;;;;;;5043372;28;20090;-59
2023/04/16 01:08:47;;;;;;;1.27;0.80;;;;;;;;;;5042234;28;20275;-60
2023/04/16 01:11:13;;;;;;;2.10;1.10;;;;;;;;;;5044484;28;20283;-59
2023/04/16 01:13:38;;;;;;;1.92;0.90;;;;;;;;;;5043084;28;20386;-59
2023/04/16 01:16:07;;;;;;;1.50;0.90;;;;;;;;;;5043454;28;20029;-60
2023/04/16 01:18:32;;;;;;;1.98;0.95;;;;;;;;;;5024360;28;20060;-59
2023/04/16 01:20:57;;;;;;;2.95;1.13;;;;;;;;;;5042321;28;20393;-59
2023/04/16 01:23:22;;;;;;;1.83;0.90;;;;;;;;;;5042985;28;20040;-61
2023/04/16 01:25:48;;;;;;;1.23;0.80;;;;;;;;;;5030895;28;20371;-60
2023/04/16 01:28:13;;;;;;;1.33;0.87;;;;;;;;;;5045291;28;20284;-60
2023/04/16 01:30:38;;;;;;;1.95;0.90;;;;;;;;;;5044808;28;20283;-59
2023/04/16 01:33:03;;;;;;;1.93;0.90;;;;;;;;;;5043923;28;20512;-60
2023/04/16 01:35:29;;;;;;;2.40;0.87;;;;;;;;;;5041450;28;20322;-59
2023/04/16 01:37:54;;;;;;;1.50;0.80;;;;;;;;;;5043019;28;20330;-60
2023/04/16 01:40:19;;;;;;;2.78;1.33;;;;;;;;;;5043442;28;20029;-59
2023/04/16 01:42:44;;;;;;;2.67;1.10;;;;;;;;;;5042604;28;20590;-59
2023/04/16 01:45:10;;;;;;;1.77;1.00;;;;;;;;;;5037468;28;20466;-59
2023/04/16 01:47:35;;;;;;;1.90;0.90;;;;;;;;;;5022407;28;20567;-59
2023/04/16 01:50:01;;;;;;;1.48;0.90;;;;;;;;;;5035297;28;20077;-59
2023/04/16 01:52:26;;;;;;;2.25;1.00;;;;;;;;;;5029597;28;20034;-59
2023/04/16 01:54:52;;;;;;;1.93;1.20;;;;;;;;;;5041710;28;20049;-59
2023/04/16 01:57:17;;;;;;;2.20;0.97;;;;;;;;;;5041408;28;20291;-59
2023/04/16 01:59:42;;;;;;;1.73;0.80;;;;;;;;;;5043117;28;20298;-59
2023/04/16 02:02:09;;;;;;;2.07;0.80;;;;;;;;;;5043441;28;20822;-60
2023/04/16 02:04:35;;;;;;;2.10;1.00;;;;;;;;;;5043219;28;20838;-60
2023/04/16 02:07:00;;;;;;;1.90;1.00;;;;;;;;;;5045388;28;20029;-59
2023/04/16 02:09:26;;;;;;;1.57;1.03;;;;;;;;;;5044687;28;20033;-59
2023/04/16 02:11:51;;;;;;;2.17;1.00;;;;;;;;;;5045062;28;20306;-63
2023/04/16 02:14:16;;;;;;;1.30;0.83;;;;;;;;;;5028079;28;20284;-59
2023/04/16 02:16:41;;;;;;;1.98;1.00;;;;;;;;;;5045683;28;20286;-59
2023/04/16 02:19:07;;;;;;;1.70;0.87;;;;;;;;;;5047482;28;20041;-59
2023/04/16 02:21:32;;;;;;;1.53;0.80;;;;;;;;;;5047484;28;20060;-59
2023/04/16 02:23:57;;;;;;;2.43;1.20;;;;;;;;;;5046702;28;20341;-59
2023/04/16 02:26:22;;;;;;;2.97;1.05;;;;;;;;;;5044709;28;20289;-59
2023/04/16 02:28:48;;;;;;;1.80;0.90;;;;;;;;;;5047056;28;20544;-59
2023/04/16 02:31:16;;;;;;;1.55;0.85;;;;;;;;;;5042355;28;20458;-59
2023/04/16 02:33:42;;;;;;;1.65;1.00;;;;;;;;;;5044207;28;20129;-59
2023/04/16 02:36:09;;;;;;;1.83;0.90;;;;;;;;;;5046775;28;20124;-59
2023/04/16 02:38:36;;;;;;;1.48;0.95;;;;;;;;;;5047009;28;20044;-59
2023/04/16 02:41:01;;;;;;;2.67;1.00;;;;;;;;;;5045587;28;20157;-59
2023/04/16 02:43:26;;;;;;;1.47;1.00;;;;;;;;;;5046788;28;20116;-58
2023/04/16 02:45:52;;;;;;;2.13;1.15;;;;;;;;;;5046480;28;20075;-59
2023/04/16 02:48:17;;;;;;;1.88;1.08;;;;;;;;;;5046543;28;20492;-59
2023/04/16 02:50:42;;;;;;;2.40;1.23;;;;;;;;;;5026611;28;20036;-58
2023/04/16 02:53:09;;;;;;;1.67;0.87;;;;;;;;;;5046707;28;20441;-59
2023/04/16 02:55:34;;;;;;;1.60;0.90;;;;;;;;;;5046647;28;20468;-58
2023/04/16 02:57:59;;;;;;;2.58;1.00;;;;;;;;;;5045276;28;20099;-58
2023/04/16 03:00:25;;;;;;;1.83;1.00;;;;;;;;;;5045320;28;20641;-59
2023/04/16 03:02:50;;;;;;;2.40;0.95;;;;;;;;;;5045969;28;20286;-59
2023/04/16 03:05:16;;;;;;;2.03;1.20;;;;;;;;;;5044894;28;20436;-59
2023/04/16 03:07:41;;;;;;;1.73;0.93;;;;;;;;;;5038091;28;20276;-59
2023/04/16 03:10:06;;;;;;;2.03;0.90;;;;;;;;;;5044957;28;20029;-59
2023/04/16 03:12:31;;;;;;;1.80;1.08;;;;;;;;;;5044771;28;20040;-60
2023/04/16 03:14:57;;;;;;;2.10;1.10;;;;;;;;;;5043497;28;20513;-58
2023/04/16 03:17:22;;;;;;;2.10;1.10;;;;;;;;;;5044536;28;20609;-59
2023/04/16 03:19:49;;;;;;;2.15;1.08;;;;;;;;;;5045999;28;20394;-60
2023/04/16 03:22:14;;;;;;;2.28;1.10;;;;;;;;;;5042332;28;20039;-59
2023/04/16 03:24:40;;;;;;;2.00;1.00;;;;;;;;;;5043412;28;20033;-59
2023/04/16 03:27:05;;;;;;;2.38;1.20;;;;;;;;;;5046271;28;20113;-59
2023/04/16 03:29:30;;;;;;;2.50;1.13;;;;;;;;;;5046041;28;20516;-59
2023/04/16 03:31:56;;;;;;;1.73;0.80;;;;;;;;;;5037623;28;20296;-60
2023/04/16 03:34:21;;;;;;;1.55;0.90;;;;;;;;;;5045007;28;20357;-59
2023/04/16 03:36:46;;;;;;;1.60;1.03;;;;;;;;;;5045367;28;20460;-59
2023/04/16 03:39:12;;;;;;;2.20;1.20;;;;;;;;;;5044218;28;20331;-59
2023/04/16 03:41:37;;;;;;;1.92;1.00;;;;;;;;;;5045495;28;20287;-59
2023/04/16 03:44:02;;;;;;;1.85;1.20;;;;;;;;;;5046378;28;20507;-59
2023/04/16 03:46:27;;;;;;;1.47;0.90;;;;;;;;;;5044038;28;20043;-59
2023/04/16 03:48:53;;;;;;;1.67;1.10;;;;;;;;;;5037288;28;20112;-60
2023/04/16 03:51:18;;;;;;;2.10;1.08;;;;;;;;;;5027959;28;20739;-59
2023/04/16 03:53:43;;;;;;;2.40;1.30;;;;;;;;;;5041731;28;20468;-59
2023/04/16 03:56:08;;;;;;;1.53;0.83;;;;;;;;;;5044300;28;20758;-59
2023/04/16 03:58:34;;;;;;;2.80;1.13;;;;;;;;;;5047530;28;20338;-60
2023/04/16 04:00:59;;;;;;;2.53;0.93;;;;;;;;;;5041231;28;20296;-61
2023/04/16 04:03:25;;;;;;;3.00;0.90;;;;;;;;;;5038831;28;20812;-59
2023/04/16 04:05:50;;;;;;;2.38;0.90;;;;;;;;;;5039326;28;20303;-60
2023/04/16 04:08:15;;;;;;;6.15;1.13;;;;;;;;;;5017816;28;20037;-59
2023/04/16 04:10:40;;;;;;;2.77;1.00;;;;;;;;;;5052641;28;20025;-61
2023/04/16 04:13:06;;;;;;;3.87;1.03;;;;;;;;;;5051588;28;20293;-60
2023/04/16 04:15:31;;;;;;;5.13;1.02;;;;;;;;;;5041654;28;20383;-60
2023/04/16 04:17:56;;;;;;;3.43;1.30;;;;;;;;;;5040841;28;20053;-59
2023/04/16 04:20:22;;;;;;;2.70;1.10;;;;;;;;;;5033265;28;20806;-59
2023/04/16 04:22:47;;;;;;;2.47;1.00;;;;;;;;;;5040400;28;20353;-59
2023/04/16 04:25:12;;;;;;;1.95;0.82;;;;;;;;;;5043658;28;20783;-59
2023/04/16 04:27:37;;;;;;;1.53;0.90;;;;;;;;;;5038079;28;20094;-59
2023/04/16 04:30:03;;;;;;;2.10;1.15;;;;;;;;;;5037672;28;20276;-59
2023/04/16 04:32:29;;;;;;;1.83;1.02;;;;;;;;;;5032270;28;20045;-60
2023/04/16 04:34:54;;;;;;;2.53;0.88;;;;;;;;;;5041082;28;20049;-59
2023/04/16 04:37:20;;;;;;;2.13;0.80;;;;;;;;;;5027260;28;20095;-60
2023/04/16 04:39:45;;;;;;;1.95;1.10;;;;;;;;;;5024661;28;20037;-59
2023/04/16 04:42:10;;;;;;;1.80;1.00;;;;;;;;;;5028294;28;20336;-59
2023/04/16 04:44:35;;;;;;;2.22;1.08;;;;;;;;;;5034843;28;20300;-59
2023/04/16 04:47:01;;;;;;;2.00;1.10;;;;;;;;;;5036434;28;20049;-60
2023/04/16 04:49:26;;;;;;;1.40;0.80;;;;;;;;;;5039566;28;20352;-59
2023/04/16 04:51:51;;;;;;;1.73;0.90;;;;;;;;;;5040553;28;20167;-58
2023/04/16 04:54:16;;;;;;;2.35;0.98;;;;;;;;;;5036641;28;20097;-58
2023/04/16 04:56:44;;;;;;;2.65;1.10;;;;;;;;;;5034054;28;20086;-59
2023/04/16 04:59:10;;;;;;;2.22;0.95;;;;;;;;;;5040285;28;20466;-60
2023/04/16 05:01:35;;;;;;;1.70;0.98;;;;;;;;;;5008325;28;20080;-60
2023/04/16 05:04:00;;;;;;;1.90;1.00;;;;;;;;;;5023600;28;20426;-59
2023/04/16 05:06:26;;;;;;;1.90;1.10;;;;;;;;;;5035063;28;20037;-58
2023/04/16 05:08:51;;;;;;;3.40;0.93;;;;;;;;;;5032534;28;20276;-59
2023/04/16 05:11:16;;;;;;;3.37;1.20;;;;;;;;;;5039011;28;20337;-59
2023/04/16 05:13:41;;;;;;;2.77;1.20;;;;;;;;;;5044002;28;20264;-59
2023/04/16 05:16:07;;;;;;;3.00;1.00;;;;;;;;;;5026502;28;20819;-62
2023/04/16 05:18:32;;;;;;;2.92;1.20;;;;;;;;;;5022167;28;20474;-59
2023/04/16 05:20:57;;;;;;;3.63;1.40;;;;;;;;;;5029761;28;20026;-60
2023/04/16 05:23:22;;;;;;;4.97;1.20;;;;;;;;;;5041958;28;20374;-60
2023/04/16 05:25:48;;;;;;;5.60;1.20;;;;;;;;;;5025365;28;20041;-59
2023/04/16 05:28:13;;;;;;;3.67;1.57;;;;;;;;;;5038389;28;20342;-61
2023/04/16 05:30:38;;;;;;;3.53;1.30;;;;;;;;;;5030625;28;20116;-60
2023/04/16 05:33:03;;;;;;;4.67;1.20;;;;;;;;;;5036504;28;20118;-59
2023/04/16 05:35:28;;;;;;;3.30;1.43;;;;;;;;;;5039726;28;20025;-61
2023/04/16 05:37:54;;;;;;;3.53;1.40;;;;;;;;;;5042164;28;20060;-62
2023/04/16 05:40:19;;;;;;;6.07;1.20;;;;;;;;;;5039579;28;20052;-61
2023/04/16 05:42:44;;;;;;;3.65;1.20;;;;;;;;;;5038025;28;20283;-61
2023/04/16 05:45:09;;;;;;;3.60;1.40;;;;;;;;;;5043784;28;20040;-60
2023/04/16 05:47:35;;;;;;;4.75;1.42;;;;;;;;;;5033168;28;20323;-62
2023/04/16 05:50:00;;;;;;;4.93;1.67;;;;;;;;;;5037981;28;20041;-61
2023/04/16 05:52:25;;;;;;;4.53;1.10;;;;;;;;;;5042005;28;20279;-60
2023/04/16 05:54:50;;;;;;;3.73;1.40;;;;;;;;;;5041383;28;20715;-59
2023/04/16 05:57:15;;;;;;;5.00;1.30;;;;;;;;;;5023484;28;20433;-60
2023/04/16 05:59:41;;;;;;;1.80;1.10;;;;;;;;;;5027702;28;20432;-60
2023/04/16 06:02:06;;;;;;;4.90;1.20;;;;;;;;;;5038507;28;20300;-58
2023/04/16 06:04:31;;;;;;;3.93;1.10;;;;;;;;;;5035531;28;20137;-59
2023/04/16 06:06:56;;;;;;;3.43;1.00;;;;;;;;;;5039908;28;20041;-61
2023/04/16 06:09:22;;;;;;;2.97;1.20;;;;;;;;;;5041856;28;20282;-61
2023/04/16 06:11:47;;;;;;;2.00;1.00;;;;;;;;;;5043162;28;20826;-62
2023/04/16 06:14:12;;;;;;;3.88;1.23;;;;;;;;;;5041321;28;20276;-62
2023/04/16 06:16:37;;;;;;;2.87;1.40;;;;;;;;;;5041083;28;20399;-61
2023/04/16 06:19:03;;;;;;;2.73;1.17;;;;;;;;;;5028325;28;20314;-60
2023/04/16 06:21:28;;;;;;;3.07;1.50;;;;;;;;;;5028568;28;20280;-62
2023/04/16 06:23:54;;;;;;;3.23;1.17;;;;;;;;;;5024324;28;20776;-60
2023/04/16 06:26:19;;;;;;;2.47;1.00;;;;;;;;;;5025173;28;20303;-64
2023/04/16 06:28:45;;;;;;;2.60;1.17;;;;;;;;;;5040681;28;20540;-61
2023/04/16 06:31:10;;;;;;;3.00;1.10;;;;;;;;;;5033671;28;20441;-59
2023/04/16 06:33:35;;;;;;;2.70;1.13;;;;;;;;;;5034081;28;20303;-61
2023/04/16 06:36:01;;;;;;;2.27;0.93;;;;;;;;;;5040176;28;20041;-60
2023/04/16 06:38:26;;;;;;;3.20;1.07;;;;;;;;;;5039100;28;20683;-60
2023/04/16 06:40:51;;;;;;;2.70;1.30;;;;;;;;;;5024248;28;20473;-61
2023/04/16 06:43:16;;;;;;;2.63;1.30;;;;;;;;;;5038822;28;20505;-60
2023/04/16 06:45:42;;;;;;;3.58;1.33;;;;;;;;;;5042097;28;20322;-64
2023/04/16 06:48:07;;;;;;;3.80;1.20;;;;;;;;;;5040788;28;20033;-63
2023/04/16 06:50:32;;;;;;;3.27;0.90;;;;;;;;;;5038372;28;20787;-62
2023/04/16 06:52:58;;;;;;;2.80;1.33;;;;;;;;;;5036182;28;20445;-60
2023/04/16 06:55:23;;;;;;;2.20;1.10;;;;;;;;;;5027622;28;20113;-59
2023/04/16 06:57:48;;;;;;;2.58;1.23;;;;;;;;;;5031360;28;20514;-59
2023/04/16 07:00:13;;;;;;;2.22;1.00;;;;;;;;;;5031247;28;20030;-60
2023/04/16 07:02:39;;;;;;;3.72;1.38;;;;;;;;;;5026086;28;20400;-61
2023/04/16 07:05:04;;;;;;;2.05;0.95;;;;;;;;;;5034369;28;20518;-61
2023/04/16 07:07:30;;;;;;;2.15;1.27;;;;;;;;;;5023756;28;20041;-61
2023/04/16 07:09:55;;;;;;;2.00;1.20;;;;;;;;;;5042663;28;20037;-60
2023/04/16 07:12:20;;;;;;;4.93;2.30;;;;;;;;;;5023662;28;20043;-61
2023/04/16 07:14:46;;;;;;;3.53;1.60;;;;;;;;;;5023680;28;20057;-60
2023/04/16 07:17:11;;;;;;;4.25;1.20;;;;;;;;;;5025434;28;20136;-61
2023/04/16 07:19:36;;;;;;;2.90;1.00;;;;;;;;;;5018225;28;20053;-60
2023/04/16 07:22:02;;;;;;;3.00;1.23;;;;;;;;;;5025124;28;20029;-61
2023/04/16 07:24:27;;;;;;;4.07;1.70;;;;;;;;;;5033804;28;20029;-61
2023/04/16 07:26:52;;;;;;;2.45;1.15;;;;;;;;;;5036865;28;20822;-60
2023/04/16 07:29:17;;;;;;;2.10;1.15;;;;;;;;;;5033850;28;20501;-60
2023/04/16 07:31:43;;;;;;;2.50;0.95;;;;;;;;;;5024421;28;20509;-60
2023/04/16 07:34:09;;;;;;;2.58;1.10;;;;;;;;;;5029510;28;20058;-61
2023/04/16 07:36:34;;;;;;;2.85;1.20;;;;;;;;;;5032041;28;20277;-62
2023/04/16 07:38:59;;;;;;;3.35;1.38;;;;;;;;;;5025826;28;20056;-61
2023/04/16 07:41:25;;;;;;;3.67;1.27;;;;;;;;;;5007844;28;20045;-60
2023/04/16 07:43:50;;;;;;;2.17;1.08;;;;;;;;;;5032371;28;20047;-61
2023/04/16 07:46:15;;;;;;;2.13;1.33;;;;;;;;;;5040504;28;20055;-62
2023/04/16 07:48:41;;;;;;;3.08;1.17;;;;;;;;;;5041789;28;20128;-60
2023/04/16 07:51:07;;;;;;;3.08;1.23;;;;;;;;;;5031588;28;20124;-60
2023/04/16 07:53:32;;;;;;;3.10;1.30;;;;;;;;;;5023171;28;20091;-61
2023/04/16 07:55:57;;;;;;;3.05;1.20;;;;;;;;;;5042967;28;20047;-61
2023/04/16 07:58:22;;;;;;;2.20;1.10;;;;;;;;;;5023487;28;20045;-62
2023/04/16 08:00:48;;;;;;;3.10;1.40;;;;;;;;;;5039310;28;20029;-61
2023/04/16 08:03:14;;;;;;;2.78;1.40;;;;;;;;;;5036523;28;20066;-61
2023/04/16 08:05:40;;;;;;;3.22;1.30;;;;;;;;;;5026139;28;20504;-62
2023/04/16 08:08:05;;;;;;;2.20;1.20;;;;;;;;;;5006669;28;20046;-61
2023/04/16 08:10:30;;;;;;;3.45;1.38;;;;;;;;;;5028933;28;20461;-60
2023/04/16 08:12:56;;;;;;;3.20;1.20;;;;;;;;;;5011488;28;20414;-63
2023/04/16 08:15:21;;;;;;;5.75;1.30;;;;;;;;;;5019149;28;20311;-61
2023/04/16 08:17:46;;;;;;;2.30;1.20;;;;;;;;;;5042444;28;20476;-61
2023/04/16 08:20:12;;;;;;;2.88;1.30;;;;;;;;;;5030070;28;20518;-61
2023/04/16 08:22:37;;;;;;;3.58;1.30;;;;;;;;;;5031141;28;20501;-61
2023/04/16 08:25:02;;;;;;;2.33;1.20;;;;;;;;;;5042752;28;20226;-61
2023/04/16 08:27:28;;;;;;;2.88;1.30;;;;;;;;;;5031771;28;20808;-61
2023/04/16 08:29:53;;;;;;;3.85;1.40;;;;;;;;;;5042790;28;20138;-64
2023/04/16 08:32:18;;;;;;;2.00;1.00;;;;;;;;;;5037174;28;20030;-60
2023/04/16 08:34:43;;;;;;;3.20;1.30;;;;;;;;;;5034356;28;20757;-61
2023/04/16 08:37:09;;;;;;;3.60;1.40;;;;;;;;;;5020145;28;20349;-63
2023/04/16 08:39:34;;;;;;;2.88;1.20;;;;;;;;;;5033737;28;20362;-60
2023/04/16 08:41:59;;;;;;;2.28;1.20;;;;;;;;;;5029497;28;20041;-60
2023/04/16 08:44:26;;;;;;;2.03;1.13;;;;;;;;;;5041769;28;20094;-61
2023/04/16 08:46:56;;;;;;;2.03;1.05;;;;;;;;;;5025690;28;20291;-61
2023/04/16 08:49:22;;;;;;;2.47;1.30;;;;;;;;;;5017553;28;20131;-60
2023/04/16 08:51:51;;;;;;;2.10;1.10;;;;;;;;;;5013815;28;20509;-61
2023/04/16 08:54:19;;;;;;;3.05;1.27;;;;;;;;;;5039509;28;20017;-62
2023/04/16 08:56:44;;;;;;;2.97;1.15;;;;;;;;;;5023666;28;20028;-61
2023/04/16 08:59:10;;;;;;;2.47;1.30;;;;;;;;;;5035537;28;20033;-61
2023/04/16 09:01:36;;;;;;;2.58;1.40;;;;;;;;;;5022882;28;20691;-61
2023/04/16 09:04:02;;;;;;;2.00;0.88;;;;;;;;;;5034929;28;20029;-61
2023/04/16 09:06:27;;;;;;;2.80;1.30;;;;;;;;;;5030540;28;20471;-62
2023/04/16 09:08:52;;;;;;;2.40;1.20;;;;;;;;;;5024183;28;20267;-63
2023/04/16 09:11:18;;;;;;;2.83;1.30;;;;;;;;;;5030204;28;20025;-63
2023/04/16 09:13:44;;;;;;;2.05;1.10;;;;;;;;;;5031501;28;20036;-61
2023/04/16 09:16:10;;;;;;;5.53;1.40;;;;;;;;;;5023625;28;20261;-62
2023/04/16 09:18:35;;;;;;;2.58;1.35;;;;;;;;;;5023343;28;20438;-59
2023/04/16 09:21:00;;;;;;;2.25;1.02;;;;;;;;;;5025695;28;20025;-60
2023/04/16 09:23:25;;;;;;;2.50;1.20;;;;;;;;;;5041193;28;20082;-60
2023/04/16 09:25:51;;;;;;;3.00;1.13;;;;;;;;;;5023746;28;20025;-60
2023/04/16 09:28:35;;;;;;;2.65;1.10;;;;;;;;;;5022946;28;20021;-60
2023/04/16 09:31:07;;;;;;;2.53;1.30;;;;;;;;;;5030809;28;20417;-61
2023/04/16 09:33:33;;;;;;;2.88;1.10;;;;;;;;;;5028552;28;20509;-61
2023/04/16 09:35:58;;;;;;;2.50;1.40;;;;;;;;;;5037112;28;20060;-60
2023/04/16 09:38:25;;;;;;;2.83;0.90;;;;;;;;;;5022513;28;20315;-61
2023/04/16 09:41:04;;;;;;;3.28;1.00;;;;;;;;;;5007502;28;20292;-59
2023/04/16 09:43:30;;;;;;;2.90;1.10;;;;;;;;;;5026786;28;20037;-58
2023/04/16 09:45:55;;;;;;;2.43;1.00;;;;;;;;;;5032836;28;20060;-63
2023/04/16 09:48:30;;;;;;;5.03;1.35;;;;;;;;;;5031485;28;20121;-60
2023/04/16 09:50:55;;;;;;;9.00;1.80;;;;;;;;;;5007418;28;20042;-63
2023/04/16 09:53:25;;;;;;;5.32;1.52;;;;;;;;;;5022020;28;20513;-62
2023/04/16 09:55:51;;;;;;;5.82;1.60;;;;;;;;;;5030862;28;20044;-64
2023/04/16 09:58:19;;;;;;;4.88;1.52;;;;;;;;;;5023375;28;20050;-65
2023/04/16 10:00:45;;;;;;;6.65;2.60;;;;;;;;;;5026503;28;20719;-66
2023/04/16 10:03:10;;;;;;;5.90;2.30;;;;;;;;;;5027437;28;20050;-61
2023/04/16 10:05:35;;;;;;;10.38;4.40;;;;;;;;;;5037287;28;20128;-61
2023/04/16 10:08:01;;;;;;;8.65;5.10;;;;;;;;;;5049688;28;20041;-62
2023/04/16 10:10:26;;;;;;;8.27;4.57;;;;;;;;;;5026033;28;20052;-63
2023/04/16 10:12:51;;;;;;;8.10;3.83;;;;;;;;;;5051346;28;20056;-67
2023/04/16 10:15:16;;;;;;;7.80;3.27;;;;;;;;;;5038318;28;20537;-62
2023/04/16 10:17:42;;;;;;;7.13;2.80;;;;;;;;;;5038540;28;21521;-63
2023/04/16 10:20:07;;;;;;;4.93;2.43;;;;;;;;;;5033614;28;20276;-63
2023/04/16 10:22:32;;;;;;;4.35;2.13;;;;;;;;;;5025929;28;20038;-60
2023/04/16 10:24:57;;;;;;;4.30;2.07;;;;;;;;;;5032799;28;20049;-60
2023/04/16 10:27:23;;;;;;;6.03;2.17;;;;;;;;;;5033322;28;20283;-60
2023/04/16 10:29:48;;;;;;;8.40;2.53;;;;;;;;;;5042050;28;20132;-60
2023/04/16 10:32:13;;;;;;;4.90;2.40;;;;;;;;;;5043119;28;20282;-64
2023/04/16 10:34:38;;;;;;;4.80;1.83;;;;;;;;;;5036485;28;20349;-62
2023/04/16 10:37:04;;;;;;;5.03;1.80;;;;;;;;;;5035044;28;20048;-63
2023/04/16 10:39:29;;;;;;;4.70;2.20;;;;;;;;;;5031574;28;20421;-61
2023/04/16 10:42:07;;;;;;;6.60;2.00;;;;;;;;;;5039401;28;20025;-65
2023/04/16 10:44:32;;;;;;;8.88;2.10;;;;;;;;;;5038792;28;20042;-59
2023/04/16 10:46:58;;;;;;;6.53;2.38;;;;;;;;;;5036460;28;20103;-58
2023/04/16 10:49:23;;;;;;;6.78;2.33;;;;;;;;;;5036536;28;20067;-60
2023/04/16 10:51:51;;;;;;;4.05;1.60;;;;;;;;;;5039701;28;20425;-58
2023/04/16 10:54:18;;;;;;;3.78;1.70;;;;;;;;;;5031487;28;20041;-57
2023/04/16 10:56:43;;;;;;;4.05;1.60;;;;;;;;;;5026713;28;20045;-59
2023/04/16 10:59:09;;;;;;;5.38;1.55;;;;;;;;;;5021892;28;20137;-59
2023/04/16 11:01:34;;;;;;;4.75;1.58;;;;;;;;;;5033318;28;20454;-58
2023/04/16 11:04:00;;;;;;;5.38;1.40;;;;;;;;;;5044512;28;20414;-60
2023/04/16 11:06:26;;;;;;;4.63;1.83;;;;;;;;;;5024508;28;20038;-59
2023/04/16 11:08:51;;;;;;;5.65;1.58;;;;;;;;;;5037695;28;20041;-59
2023/04/16 11:11:17;;;;;;;5.07;1.45;;;;;;;;;;5023201;28;20087;-59
2023/04/16 11:13:43;;;;;;;7.60;4.18;;;;;;;;;;5027596;28;20460;-59
2023/04/16 11:16:08;;;;;;;5.70;2.83;;;;;;;;;;5039567;28;20038;-58
2023/04/16 11:18:34;;;;;;;9.93;5.43;;;;;;;;;;5032752;28;20059;-59
2023/04/16 11:20:59;;;;;;;49.05;26.08;;;;;;;;;;5033146;28;20521;-58
2023/04/16 11:23:24;;;;;;;57.92;32.45;;;;;;;;;;5033125;28;20129;-59
2023/04/16 11:25:55;;;;;;;56.08;31.27;;;;;;;;;;5038598;28;20041;-58
2023/04/16 11:28:21;;;;;;;41.72;22.92;;;;;;;;;;5040459;28;20041;-59
2023/04/16 11:30:46;;;;;;;26.97;14.00;;;;;;;;;;5016592;28;20049;-58
2023/04/16 11:33:11;;;;;;;20.23;10.73;;;;;;;;;;5030307;28;20284;-59
2023/04/16 11:35:38;;;;;;;17.13;8.30;;;;;;;;;;5041741;28;20842;-59
2023/04/16 11:38:05;;;;;;;11.75;5.60;;;;;;;;;;5033386;28;20319;-58
2023/04/16 11:40:30;;;;;;;9.35;4.55;;;;;;;;;;5038437;28;20109;-58
2023/04/16 11:42:59;;;;;;;8.73;4.10;;;;;;;;;;5037336;28;20123;-59
2023/04/16 11:45:24;;;;;;;8.00;3.22;;;;;;;;;;5038833;28;20025;-58
2023/04/16 11:47:54;;;;;;;7.13;3.33;;;;;;;;;;5026063;28;20076;-59
2023/04/16 11:50:26;;;;;;;4.25;2.50;;;;;;;;;;5039368;28;20068;-59
2023/04/16 11:52:52;;;;;;;9.52;2.38;;;;;;;;;;5045383;28;20072;-59
2023/04/16 11:55:18;;;;;;;7.50;1.90;;;;;;;;;;5034079;28;20498;-59
2023/04/16 11:57:44;;;;;;;7.57;2.17;;;;;;;;;;5039025;28;20510;-59
2023/04/16 12:00:12;;;;;;;4.82;1.80;;;;;;;;;;5035912;28;20036;-58
2023/04/16 12:02:41;;;;;;;6.10;2.42;;;;;;;;;;5041762;28;20093;-58
2023/04/16 12:05:25;;;;;;;5.60;2.10;;;;;;;;;;5016935;28;20108;-59
2023/04/16 12:07:50;;;;;;;3.97;1.80;;;;;;;;;;5039127;28;20045;-60
2023/04/16 12:10:15;;;;;;;3.87;1.50;;;;;;;;;;5026090;28;20087;-61
2023/04/16 12:12:41;;;;;;;4.83;1.47;;;;;;;;;;5043640;28;20356;-62
2023/04/16 12:15:06;;;;;;;5.10;1.50;;;;;;;;;;5045360;28;20107;-62
2023/04/16 12:17:32;;;;;;;4.30;1.50;;;;;;;;;;5039868;28;20046;-59
2023/04/16 12:19:58;;;;;;;6.65;1.60;;;;;;;;;;5024355;28;20034;-60
2023/04/16 12:22:34;;;;;;;4.35;1.42;;;;;;;;;;5031001;28;20029;-61
2023/04/16 12:25:00;;;;;;;5.88;1.80;;;;;;;;;;5022660;28;20507;-58
2023/04/16 12:27:28;;;;;;;6.95;1.80;;;;;;;;;;5030110;28;20041;-59
2023/04/16 12:30:06;;;;;;;3.72;1.80;;;;;;;;;;5036083;28;21845;-59
2023/04/16 12:32:31;;;;;;;4.93;1.52;;;;;;;;;;5023679;28;20083;-58
2023/04/16 12:34:56;;;;;;;3.88;1.80;;;;;;;;;;5041662;28;20069;-62
2023/04/16 12:37:22;;;;;;;4.17;2.07;;;;;;;;;;5044411;28;20471;-60
2023/04/16 12:39:47;;;;;;;2.77;1.50;;;;;;;;;;5035953;28;20359;-61
2023/04/16 12:42:13;;;;;;;6.28;1.65;;;;;;;;;;5032356;28;20291;-59
2023/04/16 12:44:38;;;;;;;5.93;1.90;;;;;;;;;;5011390;28;20033;-58
2023/04/16 12:47:04;;;;;;;2.53;1.60;;;;;;;;;;5037218;28;20120;-59
2023/04/16 12:49:29;;;;;;;3.65;1.60;;;;;;;;;;5025171;28;20311;-59
2023/04/16 12:51:55;;;;;;;7.18;1.42;;;;;;;;;;5024473;28;20065;-60
2023/04/16 12:54:20;;;;;;;3.30;1.38;;;;;;;;;;5028558;28;20325;-59
2023/04/16 12:56:45;;;;;;;5.22;1.50;;;;;;;;;;5042279;28;20040;-59
2023/04/16 12:59:11;;;;;;;4.25;1.80;;;;;;;;;;5042078;28;20047;-59
2023/04/16 13:01:36;;;;;;;5.17;1.87;;;;;;;;;;5043226;28;20033;-60
2023/04/16 13:04:01;;;;;;;4.15;1.65;;;;;;;;;;5042896;28;20276;-60
2023/04/16 13:06:26;;;;;;;4.37;1.30;;;;;;;;;;5043451;28;20567;-60
2023/04/16 13:08:52;;;;;;;3.87;1.50;;;;;;;;;;5036464;28;20287;-60
2023/04/16 13:11:18;;;;;;;2.43;1.23;;;;;;;;;;5040823;28;20284;-59
2023/04/16 13:13:43;;;;;;;2.95;1.30;;;;;;;;;;5043418;28;20813;-60
2023/04/16 13:16:08;;;;;;;3.28;1.30;;;;;;;;;;5031332;28;20051;-61
2023/04/16 13:18:39;;;;;;;5.05;1.25;;;;;;;;;;5025534;28;20480;-60
2023/04/16 13:21:04;;;;;;;3.67;1.52;;;;;;;;;;5022909;28;20124;-64
2023/04/16 13:23:29;;;;;;;5.10;1.33;;;;;;;;;;5033051;28;20155;-60
2023/04/16 13:25:55;;;;;;;7.13;1.67;;;;;;;;;;5039692;28;20552;-61
2023/04/16 13:28:20;;;;;;;3.92;1.33;;;;;;;;;;5040624;28;20699;-63
2023/04/16 13:30:48;;;;;;;3.97;1.60;;;;;;;;;;5043871;28;20032;-60
2023/04/16 13:33:14;;;;;;;6.00;1.60;;;;;;;;;;5032464;28;20029;-60
2023/04/16 13:35:39;;;;;;;6.30;2.60;;;;;;;;;;5037820;28;20512;-59
2023/04/16 13:38:04;;;;;;;2.92;1.65;;;;;;;;;;5043284;28;20571;-62
2023/04/16 13:40:30;;;;;;;4.35;2.28;;;;;;;;;;5043831;28;20029;-60
2023/04/16 13:42:55;;;;;;;6.80;2.20;;;;;;;;;;5030510;28;20072;-61
2023/04/16 13:45:20;;;;;;;4.75;1.90;;;;;;;;;;5042326;28;20437;-61
2023/04/16 13:47:46;;;;;;;4.77;1.90;;;;;;;;;;5031558;28;20025;-60
2023/04/16 13:50:11;;;;;;;4.60;1.67;;;;;;;;;;5029380;28;20543;-60
2023/04/16 13:52:36;;;;;;;4.77;1.90;;;;;;;;;;5030641;28;20033;-60
2023/04/16 13:55:01;;;;;;;3.88;2.00;;;;;;;;;;5019278;28;20776;-60
2023/04/16 13:57:27;;;;;;;4.55;2.20;;;;;;;;;;5020749;28;20033;-61
2023/04/16 13:59:52;;;;;;;8.15;2.15;;;;;;;;;;5026021;28;20510;-60
2023/04/16 14:02:17;;;;;;;6.20;2.00;;;;;;;;;;5034477;28;20037;-58
2023/04/16 14:04:43;;;;;;;4.10;1.83;;;;;;;;;;5032618;28;20490;-58
2023/04/16 14:07:08;;;;;;;4.10;1.80;;;;;;;;;;5022993;28;20057;-60
2023/04/16 14:09:33;;;;;;;4.37;1.80;;;;;;;;;;5045116;28;20284;-59
2023/04/16 14:11:58;;;;;;;4.43;2.10;;;;;;;;;;5040736;28;20278;-59
2023/04/16 14:14:25;;;;;;;5.20;2.33;;;;;;;;;;5040113;28;20319;-59
2023/04/16 14:16:50;;;;;;;6.18;2.55;;;;;;;;;;5035889;28;20416;-59
2023/04/16 14:19:15;;;;;;;6.13;2.70;;;;;;;;;;5009505;28;20127;-59
2023/04/16 14:21:40;;;;;;;8.50;2.63;;;;;;;;;;5045415;28;20091;-59
2023/04/16 14:24:07;;;;;;;5.03;2.10;;;;;;;;;;5042732;28;20302;-59
2023/04/16 14:26:33;;;;;;;4.78;2.55;;;;;;;;;;5030709;28;20277;-59
2023/04/16 14:28:58;;;;;;;6.47;2.77;;;;;;;;;;5046911;28;20040;-60
2023/04/16 14:31:24;;;;;;;4.67;2.80;;;;;;;;;;5044052;28;20291;-60
2023/04/16 14:33:50;;;;;;;5.88;3.10;;;;;;;;;;5027887;28;20306;-60